Time;durP1;ratioP1;P1;durP2;ratioP2;P2;SDS_P1;SDS_P2;PMS_P1;PMS_P2;Temp;Humidity;BMP_temperature;BMP_pressure;BME280_temperature;BME280_humidity;BME280_pressure;Samples;Min_cycle;Max_cycle;Signal;HPM_P1;HPM_P2
2022/09/16 00:02:13;;;;;;;;;;;;;;;13.60;100.00;97745.36;2205795;80;20121;-58
2022/09/16 00:05:14;;;;;;;;;;;;;;;13.50;100.00;97746.21;2204400;80;20113;-59
2022/09/16 00:08:16;;;;;;;;;;;;;;;13.61;100.00;97750.49;2206381;80;20096;-58
2022/09/16 00:11:17;;;;;;;;;;;;;;;13.67;100.00;97753.06;2203484;80;20108;-59
2022/09/16 00:14:20;;;;;;;;;;;;;;;13.64;100.00;97755.98;2205910;80;20157;-59
2022/09/16 00:17:21;;;;;;;;;;;;;;;13.58;100.00;97757.36;2207811;79;20104;-59
2022/09/16 00:20:22;;;;;;;;;;;;;;;13.56;100.00;97763.27;2208543;80;20147;-58
2022/09/16 00:23:24;;;;;;;;;;;;;;;13.64;100.00;97773.92;2207140;79;20136;-59
2022/09/16 00:26:26;;;;;;;;;;;;;;;13.60;100.00;97769.90;2203132;80;20391;-59
2022/09/16 00:29:28;;;;;;;;;;;;;;;13.58;100.00;97769.71;2192156;80;20101;-58
2022/09/16 00:32:29;;;;;;;;;;;;;;;13.65;100.00;97774.28;2204486;80;20131;-59
2022/09/16 00:35:31;;;;;;;;;;;;;;;13.75;100.00;97782.66;2210776;80;20112;-58
2022/09/16 00:38:32;;;;;;;;;;;;;;;13.68;100.00;97781.08;2203873;80;20096;-58
2022/09/16 00:41:35;;;;;;;;;;;;;;;13.74;100.00;97792.38;2207866;80;20113;-57
2022/09/16 00:44:37;;;;;;;;;;;;;;;13.68;100.00;97787.67;2200739;80;20116;-57
2022/09/16 00:47:38;;;;;;;;;;;;;;;13.72;100.00;97786.89;2199206;80;20217;-57
2022/09/16 00:50:40;;;;;;;;;;;;;;;13.64;100.00;97773.92;2202326;80;20204;-57
2022/09/16 00:53:41;;;;;;;;;;;;;;;13.56;100.00;97778.22;2204891;80;20131;-57
2022/09/16 00:56:43;;;;;;;;;;;;;;;13.55;100.00;97783.98;2206463;80;20159;-59
2022/09/16 00:59:44;;;;;;;;;;;;;;;13.59;100.00;97788.48;2203106;80;20110;-59
2022/09/16 01:02:46;;;;;;;;;;;;;;;13.57;100.00;97778.58;2202684;80;20096;-59
2022/09/16 01:05:48;;;;;;;;;;;;;;;13.63;100.00;97786.77;2203066;80;20096;-59
2022/09/16 01:08:50;;;;;;;;;;;;;;;13.63;100.00;97790.73;2201902;80;20144;-59
2022/09/16 01:11:51;;;;;;;;;;;;;;;13.60;100.00;97787.02;2202855;80;20109;-59
2022/09/16 01:14:53;;;;;;;;;;;;;;;13.59;100.00;97792.43;2204971;80;20467;-59
2022/09/16 01:17:54;;;;;;;;;;;;;;;13.56;100.00;97788.30;2201408;80;20108;-59
2022/09/16 01:20:56;;;;;;;;;;;;;;;13.42;100.00;97789.52;2204437;80;20124;-57
2022/09/16 01:23:58;;;;;;;;;;;;;;;13.59;100.00;97788.02;2199897;81;20648;-58
2022/09/16 01:26:59;;;;;;;;;;;;;;;13.51;100.00;97780.78;2209883;79;20097;-59
2022/09/16 01:30:01;;;;;;;;;;;;;;;13.36;100.00;97791.39;2202447;80;20403;-58
2022/09/16 01:33:03;;;;;;;;;;;;;;;13.37;100.00;97789.09;2211321;80;20085;-58
2022/09/16 01:36:05;;;;;;;;;;;;;;;13.35;100.00;97784.45;2204297;79;20101;-59
2022/09/16 01:39:07;;;;;;;;;;;;;;;13.24;100.00;97786.67;2205274;80;20553;-58
2022/09/16 01:42:08;;;;;;;;;;;;;;;13.22;100.00;97786.48;2205265;80;20097;-59
2022/09/16 01:45:10;;;;;;;;;;;;;;;13.13;100.00;97798.17;2200620;81;20104;-58
2022/09/16 01:48:12;;;;;;;;;;;;;;;13.05;100.00;97792.73;2198044;80;20427;-59
2022/09/16 01:51:13;;;;;;;;;;;;;;;13.05;100.00;97792.73;2206284;80;20120;-57
2022/09/16 01:54:15;;;;;;;;;;;;;;;13.06;100.00;97789.61;2205221;80;20097;-58
2022/09/16 01:57:16;;;;;;;;;;;;;;;13.03;100.00;97793.83;2205348;80;20104;-57
2022/09/16 02:00:18;;;;;;;;;;;;;;;12.90;100.00;97794.92;2204243;80;20101;-58
2022/09/16 02:03:20;;;;;;;;;;;;;;;12.99;100.00;97788.02;2246864;78;20404;-58
2022/09/16 02:06:21;;;;;;;;;;;;;;;13.02;100.00;97790.37;2245265;79;20094;-58
2022/09/16 02:09:23;;;;;;;;;;;;;;;12.97;100.00;97780.26;2200698;80;20159;-59
2022/09/16 02:12:24;;;;;;;;;;;;;;;13.04;100.00;97780.53;2198072;81;20156;-58
2022/09/16 02:15:26;;;;;;;;;;;;;;;13.10;100.00;97781.33;2190521;81;20104;-57
2022/09/16 02:18:27;;;;;;;;;;;;;;;13.01;100.00;97783.44;2248252;78;20390;-58
2022/09/16 02:21:29;;;;;;;;;;;;;;;12.98;100.00;97785.03;2247789;77;20130;-59
2022/09/16 02:24:31;;;;;;;;;;;;;;;12.79;100.00;97793.20;2199758;81;20157;-59
2022/09/16 02:27:32;;;;;;;;;;;;;;;12.78;100.00;97792.02;2249276;78;20503;-59
2022/09/16 02:30:34;;;;;;;;;;;;;;;12.77;100.00;97795.61;2248807;78;20094;-58
2022/09/16 02:33:35;;;;;;;;;;;;;;;12.73;100.00;97799.01;2199327;80;20448;-58
2022/09/16 02:36:37;;;;;;;;;;;;;;;12.73;100.00;97800.32;2196563;80;20093;-58
2022/09/16 02:39:38;;;;;;;;;;;;;;;12.61;100.00;97804.84;2193110;80;20110;-57
2022/09/16 02:42:40;;;;;;;;;;;;;;;12.59;100.00;97809.39;2199020;81;20109;-58
2022/09/16 02:45:41;;;;;;;;;;;;;;;12.56;100.00;97810.97;2197690;80;20195;-58
2022/09/16 02:48:43;;;;;;;;;;;;;;;12.53;100.00;97805.98;2244468;79;20499;-58
2022/09/16 02:51:44;;;;;;;;;;;;;;;12.41;100.00;97809.63;2248752;78;20165;-57
2022/09/16 02:54:46;;;;;;;;;;;;;;;12.38;100.00;97808.09;2197530;80;20153;-58
2022/09/16 02:57:47;;;;;;;;;;;;;;;12.33;100.00;97800.27;2198172;80;20131;-56
2022/09/16 03:00:49;;;;;;;;;;;;;;;12.33;100.00;97804.22;2198404;80;20152;-58
2022/09/16 03:03:50;;;;;;;;;;;;;;;12.29;100.00;97802.31;2200519;80;20440;-58
2022/09/16 03:06:52;;;;;;;;;;;;;;;12.25;100.00;97809.61;2201971;80;20152;-58
2022/09/16 03:09:53;;;;;;;;;;;;;;;12.25;100.00;97816.18;2199624;81;20384;-58
2022/09/16 03:12:55;;;;;;;;;;;;;;;12.24;100.00;97812.37;2200787;80;20101;-58
2022/09/16 03:15:56;;;;;;;;;;;;;;;12.22;100.00;97812.99;2199806;80;20152;-58
2022/09/16 03:18:58;;;;;;;;;;;;;;;12.30;100.00;97817.95;2202101;80;20141;-58
2022/09/16 03:22:00;;;;;;;;;;;;;;;12.43;100.00;97826.14;2192741;81;20104;-59
2022/09/16 03:25:01;;;;;;;;;;;;;;;12.32;100.00;97823.08;2201583;80;20429;-59
2022/09/16 03:28:03;;;;;;;;;;;;;;;12.32;100.00;97822.26;2199412;80;20132;-59
2022/09/16 03:31:04;;;;;;;;;;;;;;;12.35;100.00;97819.37;2197913;80;20104;-58
2022/09/16 03:34:06;;;;;;;;;;;;;;;12.30;100.00;97817.13;2248931;78;20102;-58
2022/09/16 03:37:07;;;;;;;;;;;;;;;12.24;100.00;97819.80;2240578;78;20094;-58
2022/09/16 03:40:09;;;;;;;;;;;;;;;12.19;100.00;97818.02;2244915;78;20404;-58
2022/09/16 03:43:11;;;;;;;;;;;;;;;12.12;100.00;97815.09;2199984;80;20113;-59
2022/09/16 03:46:12;;;;;;;;;;;;;;;12.05;100.00;97815.70;2198871;80;20096;-58
2022/09/16 03:49:14;;;;;;;;;;;;;;;11.98;100.00;97815.38;2200932;80;20396;-58
2022/09/16 03:52:17;;;;;;;;;;;;;;;11.96;100.00;97810.73;2200642;81;20128;-58
2022/09/16 03:55:19;;;;;;;;;;;;;;;11.90;100.00;97817.30;2199833;81;20113;-58
2022/09/16 03:58:21;;;;;;;;;;;;;;;11.86;100.00;97815.88;2196939;80;20141;-59
2022/09/16 04:01:22;;;;;;;;;;;;;;;11.84;100.00;97828.33;2246533;79;20150;-58
2022/09/16 04:04:24;;;;;;;;;;;;;;;11.69;100.00;97820.38;2244598;77;20118;-59
2022/09/16 04:07:26;;;;;;;;;;;;;;;11.63;100.00;97826.14;2246245;79;20106;-58
2022/09/16 04:10:27;;;;;;;;;;;;;;;11.68;100.00;97823.95;2247213;78;20377;-58
2022/09/16 04:13:29;;;;;;;;;;;;;;;11.65;100.00;97830.31;2245152;79;20130;-58
2022/09/16 04:16:30;;;;;;;;;;;;;;;11.52;100.00;97826.53;2244795;79;20105;-58
2022/09/16 04:19:32;;;;;;;;;;;;;;;11.59;100.00;97820.28;2245106;79;20138;-58
2022/09/16 04:22:33;;;;;;;;;;;;;;;11.60;100.00;97833.29;2203549;80;20124;-59
2022/09/16 04:25:35;;;;;;;;;;;;;;;11.51;100.00;97824.03;2233253;79;20389;-58
2022/09/16 04:28:36;;;;;;;;;;;;;;;11.41;100.00;97827.88;2246489;78;20130;-58
2022/09/16 04:31:38;;;;;;;;;;;;;;;11.58;100.00;97821.27;2241376;78;20126;-58
2022/09/16 04:34:40;;;;;;;;;;;;;;;11.60;100.00;97830.66;2199904;81;20112;-58
2022/09/16 04:37:42;;;;;;;;;;;;;;;11.62;100.00;97835.79;2199915;80;20172;-58
2022/09/16 04:40:43;;;;;;;;;;;;;;;11.68;100.00;97823.49;2196888;80;20113;-58
2022/09/16 04:43:44;;;;;;;;;;;;;;;11.72;100.00;97828.00;2200674;80;20137;-58
2022/09/16 04:46:46;;;;;;;;;;;;;;;11.75;100.00;97831.69;2200244;80;20117;-58
2022/09/16 04:49:48;;;;;;;;;;;;;;;11.67;100.00;97823.62;2244507;78;20416;-56
2022/09/16 04:52:50;;;;;;;;;;;;;;;11.84;100.00;97832.72;2245799;78;20197;-56
2022/09/16 04:55:52;;;;;;;;;;;;;;;11.82;100.00;97835.97;2201072;80;20104;-57
2022/09/16 04:58:53;;;;;;;;;;;;;;;11.87;100.00;97840.38;2200203;80;20372;-56
2022/09/16 05:01:55;;;;;;;;;;;;;;;11.92;100.00;97845.62;2245328;79;20103;-56
2022/09/16 05:04:57;;;;;;;;;;;;;;;12.04;100.00;97849.05;2249006;77;20106;-58
2022/09/16 05:07:58;;;;;;;;;;;;;;;12.03;100.00;97848.69;2199497;80;20388;-58
2022/09/16 05:11:00;;;;;;;;;;;;;;;12.24;100.00;97849.17;2195970;80;20191;-58
2022/09/16 05:14:02;;;;;;;;;;;;;;;12.15;100.00;97840.75;2201624;80;20142;-59
2022/09/16 05:17:03;;;;;;;;;;;;;;;12.22;100.00;97843.22;2241727;78;20448;-59
2022/09/16 05:20:05;;;;;;;;;;;;;;;12.29;100.00;97836.48;2197606;80;20120;-58
2022/09/16 05:23:06;;;;;;;;;;;;;;;12.38;100.00;97834.88;2248274;77;20146;-58
2022/09/16 05:26:08;;;;;;;;;;;;;;;12.40;100.00;97843.49;2201345;80;20133;-58
2022/09/16 05:29:09;;;;;;;;;;;;;;;12.38;100.00;97840.97;2201956;80;20108;-58
2022/09/16 05:32:11;;;;;;;;;;;;;;;12.38;100.00;97839.65;2196843;81;20416;-58
2022/09/16 05:35:12;;;;;;;;;;;;;;;12.46;100.00;97839.84;2197813;81;20101;-58
2022/09/16 05:38:14;;;;;;;;;;;;;;;12.65;100.00;97829.90;2201520;80;20097;-58
2022/09/16 05:41:15;;;;;;;;;;;;;;;12.86;100.00;97840.89;2201133;80;20120;-59
2022/09/16 05:44:17;;;;;;;;;;;;;;;13.05;100.00;97839.30;2198847;80;20109;-58
2022/09/16 05:47:18;;;;;;;;;;;;;;;13.18;100.00;97850.42;2247610;78;20082;-58
2022/09/16 05:50:20;;;;;;;;;;;;;;;13.13;100.00;97849.97;2243747;78;20130;-59
2022/09/16 05:53:22;;;;;;;;;;;;;;;12.98;100.00;97856.92;2245221;78;20098;-59
2022/09/16 05:56:25;;;;;;;;;;;;;;;12.95;100.00;97847.97;2236833;78;20329;-58
2022/09/16 05:59:26;;;;;;;;;;;;;;;12.98;100.00;97847.70;2199538;80;20085;-58
2022/09/16 06:02:28;;;;;;;;;;;;;;;12.99;100.00;97853.82;2197808;80;20398;-58
2022/09/16 06:05:31;;;;;;;;;;;;;;;12.97;100.00;97847.84;2198577;81;20147;-58
2022/09/16 06:08:33;;;;;;;;;;;;;;;12.92;100.00;97845.61;2210280;79;20440;-58
2022/09/16 06:11:34;;;;;;;;;;;;;;;12.93;100.00;97843.80;2236408;78;20099;-58
2022/09/16 06:14:36;;;;;;;;;;;;;;;12.90;100.00;97850.65;2208318;80;20099;-58
2022/09/16 06:17:37;;;;;;;;;;;;;;;12.86;100.00;97848.78;2213308;80;20108;-58
2022/09/16 06:20:39;;;;;;;;;;;;;;;12.82;100.00;97849.52;2219466;80;20160;-59
2022/09/16 06:23:40;;;;;;;;;;;;;;;12.82;100.00;97848.69;2207573;80;20399;-58
2022/09/16 06:26:41;;;;;;;;;;;;;;;12.83;100.00;97846.42;2208897;80;20106;-59
2022/09/16 06:29:43;;;;;;;;;;;;;;;12.79;100.00;97844.52;2217086;80;20439;-59
2022/09/16 06:32:44;;;;;;;;;;;;;;;12.94;100.00;97842.38;2189525;80;20106;-58
2022/09/16 06:35:46;;;;;;;;;;;;;;;13.00;100.00;97847.56;2236629;79;20086;-57
2022/09/16 06:38:48;;;;;;;;;;;;;;;13.04;100.00;97850.29;2247887;78;20404;-57
2022/09/16 06:41:50;;;;;;;;;;;;;;;12.99;100.00;97853.82;2202087;80;20153;-58
2022/09/16 06:44:52;;;;;;;;;;;;;;;12.99;100.00;97855.14;2243209;79;20107;-59
2022/09/16 06:47:54;;;;;;;;;;;;;;;13.06;100.00;97848.84;2246622;78;20440;-59
2022/09/16 06:50:55;;;;;;;;;;;;;;;13.17;100.00;97851.37;2208133;80;20104;-59
2022/09/16 06:53:57;;;;;;;;;;;;;;;13.21;100.00;97855.41;2211653;79;20092;-57
2022/09/16 06:56:58;;;;;;;;;;;;;;;13.22;100.00;97852.31;2212032;80;20108;-57
2022/09/16 07:00:00;;;;;;;;;;;;;;;13.27;100.00;97852.23;2211798;80;20189;-57
2022/09/16 07:03:02;;;;;;;;;;;;;;;13.32;100.00;97851.85;2214594;80;20104;-58
2022/09/16 07:06:04;;;;;;;;;;;;;;;13.32;100.00;97851.85;2208730;80;20136;-59
2022/09/16 07:09:05;;;;;;;;;;;;;;;13.39;100.00;97862.23;2193643;80;20110;-59
2022/09/16 07:12:07;;;;;;;;;;;;;;;13.52;100.00;97860.66;2185645;79;20391;-59
2022/09/16 07:15:08;;;;;;;;;;;;;;;13.60;100.00;97864.75;2202637;80;20108;-57
2022/09/16 07:18:10;;;;;;;;;;;;;;;13.58;100.00;97866.70;2204741;80;20116;-59
2022/09/16 07:21:11;;;;;;;;;;;;;;;13.54;100.00;97863.16;2206841;80;20117;-59
2022/09/16 07:24:13;;;;;;;;;;;;;;;13.64;100.00;97864.00;2206443;80;20213;-59
2022/09/16 07:27:14;;;;;;;;;;;;;;;13.67;100.00;97867.67;2206512;80;20190;-59
2022/09/16 07:30:16;;;;;;;;;;;;;;;13.84;100.00;97870.95;2208719;80;20113;-59
2022/09/16 07:33:17;;;;;;;;;;;;;;;13.88;100.00;97882.07;2206110;80;20404;-59
2022/09/16 07:36:19;;;;;;;;;;;;;;;13.91;100.00;97878.33;2215418;80;20097;-59
2022/09/16 07:39:24;;;;;;;;;;;;;;;13.81;100.00;97880.45;2208286;80;20129;-59
2022/09/16 07:42:25;;;;;;;;;;;;;;;13.78;100.00;97883.37;2178876;80;20112;-59
2022/09/16 07:45:26;;;;;;;;;;;;;;;13.66;100.00;97886.62;2203121;80;20155;-59
2022/09/16 07:48:28;;;;;;;;;;;;;;;13.65;100.00;97877.04;2205680;80;20465;-59
2022/09/16 07:51:30;;;;;;;;;;;;;;;13.81;100.00;97883.59;2208567;80;20117;-59
2022/09/16 07:54:31;;;;;;;;;;;;;;;13.97;100.00;97872.50;2206696;80;20109;-59
2022/09/16 07:57:33;;;;;;;;;;;;;;;14.15;100.00;97870.83;2200946;80;20258;-59
2022/09/16 08:00:34;;;;;;;;;;;;;;;14.31;100.00;97876.86;2196227;80;20148;-58
2022/09/16 08:03:36;;;;;;;;;;;;;;;14.46;100.00;97871.97;2192538;80;20447;-58
2022/09/16 08:06:37;;;;;;;;;;;;;;;14.53;100.00;97879.66;2196918;80;20085;-57
2022/09/16 08:09:39;;;;;;;;;;;;;;;14.66;100.00;97870.66;2193857;80;20104;-59
2022/09/16 08:12:41;;;;;;;;;;;;;;;14.73;100.00;97887.08;2246199;78;20417;-58
2022/09/16 08:15:42;;;;;;;;;;;;;;;14.56;100.00;97895.20;2247075;78;20130;-58
2022/09/16 08:18:44;;;;;;;;;;;;;;;14.70;100.00;97890.51;2201304;81;20153;-59
2022/09/16 08:21:46;;;;;;;;;;;;;;;14.73;100.00;97897.64;2245912;78;20180;-58
2022/09/16 08:24:48;;;;;;;;;;;;;;;14.67;100.00;97903.99;2246266;78;20185;-58
2022/09/16 08:27:49;;;;;;;;;;;;;;;14.68;100.00;97896.40;2197371;80;20400;-59
2022/09/16 08:30:50;;;;;;;;;;;;;;;14.78;100.00;97897.70;2202172;80;20104;-57
2022/09/16 08:33:52;;;;;;;;;;;;;;;14.69;100.00;97898.89;2198426;79;20141;-57
2022/09/16 08:36:54;;;;;;;;;;;;;;;14.81;100.00;97895.63;2240200;78;20110;-58
2022/09/16 08:39:56;;;;;;;;;;;;;;;14.76;100.00;97889.92;2199496;80;20125;-57
2022/09/16 08:42:57;;;;;;;;;;;;;;;14.81;100.00;97886.38;2197702;80;20096;-58
2022/09/16 08:45:59;;;;;;;;;;;;;;;14.96;100.00;97880.64;2198572;81;20172;-59
2022/09/16 08:49:01;;;;;;;;;;;;;;;15.30;100.00;97875.63;2241945;78;20107;-57
2022/09/16 08:52:03;;;;;;;;;;;;;;;15.64;100.00;97879.47;2244600;79;20102;-58
2022/09/16 08:55:04;;;;;;;;;;;;;;;15.90;100.00;97900.28;2211526;79;20124;-59
2022/09/16 08:58:06;;;;;;;;;;;;;;;16.05;100.00;97891.31;2211775;80;20096;-59
2022/09/16 09:01:07;;;;;;;;;;;;;;;16.26;100.00;97880.91;2215869;80;20411;-57
2022/09/16 09:04:09;;;;;;;;;;;;;;;16.67;100.00;97887.84;2213370;80;20155;-56
2022/09/16 09:07:10;;;;;;;;;;;;;;;16.75;100.00;97888.38;2213424;80;20182;-58
2022/09/16 09:10:11;;;;;;;;;;;;;;;16.84;100.00;97877.34;2198946;80;20179;-59
2022/09/16 09:13:15;;;;;;;;;;;;;;;16.79;100.00;97883.11;2171888;80;20100;-58
2022/09/16 09:16:18;;;;;;;;;;;;;;;16.51;100.00;97893.03;2190415;80;20129;-59
2022/09/16 09:19:21;;;;;;;;;;;;;;;16.39;100.00;97891.95;2182845;80;20417;-59
2022/09/16 09:22:24;;;;;;;;;;;;;;;16.14;100.00;97895.37;2186345;80;20108;-59
2022/09/16 09:25:28;;;;;;;;;;;;;;;15.98;100.00;97910.09;2182470;80;20096;-59
2022/09/16 09:28:32;;;;;;;;;;;;;;;15.88;100.00;97882.39;2183607;80;20092;-59
2022/09/16 09:31:35;;;;;;;;;;;;;;;15.83;100.00;97893.92;2179380;80;20229;-59
2022/09/16 09:34:38;;;;;;;;;;;;;;;15.93;100.00;97899.13;2178493;80;20115;-59
2022/09/16 09:37:39;;;;;;;;;;;;;;;16.14;100.00;97892.22;2208505;80;20132;-59
2022/09/16 09:40:41;;;;;;;;;;;;;;;16.16;100.00;97882.81;2207423;79;20108;-59
2022/09/16 09:43:42;;;;;;;;;;;;;;;16.14;100.00;97888.75;2204862;80;20469;-58
2022/09/16 09:46:44;;;;;;;;;;;;;;;16.00;100.00;97885.64;2198918;80;20100;-59
2022/09/16 09:49:45;;;;;;;;;;;;;;;16.18;100.00;97889.61;2203188;80;20418;-58
2022/09/16 09:52:47;;;;;;;;;;;;;;;16.49;100.00;97884.39;2206269;80;20160;-59
2022/09/16 09:55:48;;;;;;;;;;;;;;;16.96;100.00;97882.24;2203519;80;20112;-59
2022/09/16 09:58:50;;;;;;;;;;;;;;;17.42;100.00;97884.61;2205579;79;20092;-59
2022/09/16 10:01:52;;;;;;;;;;;;;;;17.69;100.00;97891.99;2198262;80;20132;-59
2022/09/16 10:04:53;;;;;;;;;;;;;;;17.42;100.00;97879.30;2208660;80;20132;-58
2022/09/16 10:07:55;;;;;;;;;;;;;;;17.08;100.00;97881.97;2216658;80;20141;-59
2022/09/16 10:10:56;;;;;;;;;;;;;;;16.83;100.00;97877.84;2209578;80;20141;-59
2022/09/16 10:13:58;;;;;;;;;;;;;;;16.42;100.00;97884.17;2194781;79;20352;-58
2022/09/16 10:16:59;;;;;;;;;;;;;;;16.32;100.00;97877.67;2209653;80;20097;-59
2022/09/16 10:20:03;;;;;;;;;;;;;;;16.49;100.00;97888.37;2206524;80;20391;-60
2022/09/16 10:23:04;;;;;;;;;;;;;;;16.49;100.00;97879.92;2179403;80;20097;-59
2022/09/16 10:26:06;;;;;;;;;;;;;;;16.42;100.00;97874.91;2205759;79;20097;-59
2022/09/16 10:29:07;;;;;;;;;;;;;;;16.38;100.00;97882.34;2202608;80;20220;-58
2022/09/16 10:32:09;;;;;;;;;;;;;;;16.30;100.00;97874.83;2207395;80;20971;-59
2022/09/16 10:35:10;;;;;;;;;;;;;;;16.23;100.00;97890.00;2205954;80;20096;-58
2022/09/16 10:38:12;;;;;;;;;;;;;;;16.09;100.00;97891.83;2201419;80;20104;-59
2022/09/16 10:41:13;;;;;;;;;;;;;;;16.22;100.00;97892.30;2207591;80;20132;-58
2022/09/16 10:44:15;;;;;;;;;;;;;;;16.47;100.00;97891.17;2199567;81;20124;-58
2022/09/16 10:47:16;;;;;;;;;;;;;;;16.73;100.00;97887.72;2209430;80;20403;-57
2022/09/16 10:50:18;;;;;;;;;;;;;;;17.06;100.00;97872.86;2201843;80;20111;-57
2022/09/16 10:53:20;;;;;;;;;;;;;;;17.40;100.00;97857.45;2203744;80;20092;-57
2022/09/16 10:56:21;;;;;;;;;;;;;;;17.19;100.00;97872.42;2204682;80;20448;-57
2022/09/16 10:59:24;;;;;;;;;;;;;;;17.43;100.00;97873.02;2202709;80;20141;-57
2022/09/16 11:02:26;;;;;;;;;;;;;;;17.80;100.00;97857.22;2202211;81;20091;-57
2022/09/16 11:05:27;;;;;;;;;;;;;;;18.36;100.00;97852.64;2203762;79;20737;-59
2022/09/16 11:08:29;;;;;;;;;;;;;;;18.47;100.00;97851.45;2200125;80;20210;-59
2022/09/16 11:11:30;;;;;;;;;;;;;;;18.47;100.00;97861.56;2193239;80;20108;-59
2022/09/16 11:14:32;;;;;;;;;;;;;;;19.06;100.00;97855.68;2205769;80;20104;-58
2022/09/16 11:17:35;;;;;;;;;;;;;;;19.71;100.00;97855.86;2208233;80;21019;-59
2022/09/16 11:20:37;;;;;;;;;;;;;;;19.97;100.00;97850.73;2206432;80;20645;-59
2022/09/16 11:23:38;;;;;;;;;;;;;;;19.79;100.00;97856.36;2201594;80;20403;-59
2022/09/16 11:26:39;;;;;;;;;;;;;;;19.49;100.00;97838.36;2203445;80;20108;-59
2022/09/16 11:29:41;;;;;;;;;;;;;;;19.08;100.00;97844.37;2204698;80;20097;-59
2022/09/16 11:32:42;;;;;;;;;;;;;;;18.64;100.00;97833.17;2204938;79;20127;-59
2022/09/16 11:35:44;;;;;;;;;;;;;;;18.23;100.00;97841.68;2244503;79;20102;-57
2022/09/16 11:38:45;;;;;;;;;;;;;;;17.72;100.00;97848.42;2244455;79;20147;-57
2022/09/16 11:41:47;;;;;;;;;;;;;;;17.19;100.00;97850.41;2202091;80;20085;-57
2022/09/16 11:44:49;;;;;;;;;;;;;;;16.80;100.00;97846.38;2246649;78;20110;-57
2022/09/16 11:47:51;;;;;;;;;;;;;;;16.52;100.00;97851.84;2245173;78;20102;-59
2022/09/16 11:50:53;;;;;;;;;;;;;;;16.27;100.00;97850.83;2245371;78;20102;-59
2022/09/16 11:53:55;;;;;;;;;;;;;;;16.02;100.00;97859.89;2245136;78;20416;-58
2022/09/16 11:56:56;;;;;;;;;;;;;;;15.97;100.00;97852.06;2245671;78;20135;-59
2022/09/16 11:59:58;;;;;;;;;;;;;;;15.97;100.00;97856.03;2246699;78;20105;-58
2022/09/16 12:02:59;;;;;;;;;;;;;;;15.89;100.00;97850.19;2197508;81;20427;-59
2022/09/16 12:06:03;;;;;;;;;;;;;;;15.92;100.00;97848.06;2248116;78;20155;-59
2022/09/16 12:09:04;;;;;;;;;;;;;;;16.23;100.00;97851.64;2218009;79;20098;-59
2022/09/16 12:12:06;;;;;;;;;;;;;;;16.93;100.00;97839.37;2244313;79;20110;-58
2022/09/16 12:15:07;;;;;;;;;;;;;;;17.26;100.00;97839.51;2199585;80;20463;-59
2022/09/16 12:18:09;;;;;;;;;;;;;;;17.54;100.00;97840.58;2201706;80;20097;-59
2022/09/16 12:21:13;;;;;;;;;;;;;;;17.41;100.00;97846.34;2243012;79;20101;-59
2022/09/16 12:24:15;;;;;;;;;;;;;;;17.34;100.00;97845.32;2208443;79;20105;-59
2022/09/16 12:27:16;;;;;;;;;;;;;;;17.22;100.00;97844.28;2200584;80;20127;-58
2022/09/16 12:30:18;;;;;;;;;;;;;;;16.97;100.00;97845.51;2194418;80;20396;-59
2022/09/16 12:33:20;;;;;;;;;;;;;;;16.96;100.00;97833.75;2197919;80;20104;-58
2022/09/16 12:36:21;;;;;;;;;;;;;;;16.73;100.00;97828.14;2203942;80;20186;-57
2022/09/16 12:39:23;;;;;;;;;;;;;;;16.35;100.00;97828.87;2244174;79;20393;-58
2022/09/16 12:42:25;;;;;;;;;;;;;;;16.26;100.00;97827.98;2211422;80;20104;-57
2022/09/16 12:45:27;;;;;;;;;;;;;;;16.22;100.00;97835.89;2204149;80;20098;-58
2022/09/16 12:48:28;;;;;;;;;;;;;;;16.44;100.00;97818.70;2211073;80;20183;-58
2022/09/16 12:51:30;;;;;;;;;;;;;;;16.78;100.00;97812.63;2205497;80;20143;-59
2022/09/16 12:54:31;;;;;;;;;;;;;;;17.02;100.00;97814.56;2209561;79;20485;-57
2022/09/16 12:57:33;;;;;;;;;;;;;;;16.87;100.00;97813.49;2206270;80;20115;-57
2022/09/16 13:00:34;;;;;;;;;;;;;;;16.71;100.00;97811.09;2209317;80;20120;-58
2022/09/16 13:03:36;;;;;;;;;;;;;;;16.55;100.00;97806.53;2210380;80;20125;-59
2022/09/16 13:06:37;;;;;;;;;;;;;;;16.55;100.00;97811.83;2205704;80;20097;-59
2022/09/16 13:09:39;;;;;;;;;;;;;;;16.51;100.00;97825.54;2204523;80;20427;-59
2022/09/16 13:12:41;;;;;;;;;;;;;;;16.53;100.00;97809.00;2213553;80;20109;-59
2022/09/16 13:15:43;;;;;;;;;;;;;;;16.45;100.00;97822.52;2194285;80;20132;-59
2022/09/16 13:18:45;;;;;;;;;;;;;;;16.55;100.00;97815.80;2204745;80;20089;-58
2022/09/16 13:21:47;;;;;;;;;;;;;;;16.53;100.00;97814.29;2204646;80;20108;-58
2022/09/16 13:24:48;;;;;;;;;;;;;;;16.35;100.00;97812.53;2201565;80;20194;-59
2022/09/16 13:27:50;;;;;;;;;;;;;;;16.21;100.00;97823.17;2205544;80;20442;-59
2022/09/16 13:30:51;;;;;;;;;;;;;;;16.08;100.00;97832.00;2202159;80;20115;-59
2022/09/16 13:33:52;;;;;;;;;;;;;;;15.86;100.00;97842.06;2202877;80;20402;-59
2022/09/16 13:36:54;;;;;;;;;;;;;;;15.63;100.00;97844.29;2208087;80;20124;-59
2022/09/16 13:39:56;;;;;;;;;;;;;;;15.36;100.00;97835.91;2206894;79;20112;-59
2022/09/16 13:42:57;;;;;;;;;;;;;;;15.19;100.00;97835.70;2205735;80;20097;-59
2022/09/16 13:45:59;;;;;;;;;;;;;;;15.34;100.00;97825.95;2205044;80;20184;-58
2022/09/16 13:49:01;;;;;;;;;;;;;;;15.80;100.00;97814.06;2207268;80;20105;-59
2022/09/16 13:52:02;;;;;;;;;;;;;;;16.21;100.00;97814.41;2204205;80;20097;-59
2022/09/16 13:55:04;;;;;;;;;;;;;;;16.46;100.00;97819.37;2210725;79;20136;-59
2022/09/16 13:58:06;;;;;;;;;;;;;;;16.58;100.00;97817.31;2204361;80;20131;-59
2022/09/16 14:01:08;;;;;;;;;;;;;;;16.39;100.00;97819.17;2203327;80;20104;-59
2022/09/16 14:04:09;;;;;;;;;;;;;;;16.16;100.00;97829.90;2203978;80;20109;-59
2022/09/16 14:07:11;;;;;;;;;;;;;;;16.07;100.00;97825.04;2197023;80;20124;-59
2022/09/16 14:10:12;;;;;;;;;;;;;;;16.04;100.00;97818.23;2206597;80;20191;-59
2022/09/16 14:13:13;;;;;;;;;;;;;;;16.09;100.00;97817.30;2205496;80;20190;-59
2022/09/16 14:16:15;;;;;;;;;;;;;;;16.18;100.00;97811.58;2204032;80;20097;-59
2022/09/16 14:19:16;;;;;;;;;;;;;;;16.23;100.00;97820.37;2192794;80;20426;-59
2022/09/16 14:22:20;;;;;;;;;;;;;;;16.22;100.00;97814.73;2200205;80;20105;-58
2022/09/16 14:25:22;;;;;;;;;;;;;;;16.25;100.00;97812.63;2200419;80;20368;-59
2022/09/16 14:28:24;;;;;;;;;;;;;;;16.14;100.00;97818.16;2199099;80;20128;-58
2022/09/16 14:31:26;;;;;;;;;;;;;;;16.08;100.00;97817.45;2208389;79;20113;-58
2022/09/16 14:34:27;;;;;;;;;;;;;;;16.03;100.00;97808.66;2204601;79;20402;-59
2022/09/16 14:37:29;;;;;;;;;;;;;;;15.93;100.00;97806.09;2199441;80;20096;-58
2022/09/16 14:40:30;;;;;;;;;;;;;;;15.97;100.00;97802.64;2200675;80;20120;-58
2022/09/16 14:43:32;;;;;;;;;;;;;;;15.92;100.00;97793.03;2201326;80;20140;-57
2022/09/16 14:46:34;;;;;;;;;;;;;;;16.00;100.00;97794.90;2198411;80;20455;-56
2022/09/16 14:49:35;;;;;;;;;;;;;;;16.02;100.00;97790.27;2205320;80;20108;-57
2022/09/16 14:52:36;;;;;;;;;;;;;;;16.04;100.00;97777.23;2203124;80;20246;-57
2022/09/16 14:55:39;;;;;;;;;;;;;;;16.04;100.00;97778.56;2205370;80;20156;-59
2022/09/16 14:58:40;;;;;;;;;;;;;;;16.23;100.00;97781.53;2202037;80;20179;-58
2022/09/16 15:01:42;;;;;;;;;;;;;;;16.39;100.00;97780.80;2202715;80;20107;-58
2022/09/16 15:04:43;;;;;;;;;;;;;;;16.55;100.00;97780.06;2209973;80;20127;-58
2022/09/16 15:07:45;;;;;;;;;;;;;;;16.55;100.00;97778.74;2198033;80;20108;-57
2022/09/16 15:10:46;;;;;;;;;;;;;;;16.47;100.00;97785.81;2205331;80;20426;-58
2022/09/16 15:13:48;;;;;;;;;;;;;;;16.42;100.00;97779.64;2205652;79;20108;-59
2022/09/16 15:16:49;;;;;;;;;;;;;;;16.36;100.00;97778.45;2195489;80;20104;-58
2022/09/16 15:19:51;;;;;;;;;;;;;;;16.32;100.00;97772.30;2206925;80;20128;-58
2022/09/16 15:22:53;;;;;;;;;;;;;;;16.33;100.00;97770.00;2211525;80;20097;-58
2022/09/16 15:25:54;;;;;;;;;;;;;;;16.21;100.00;97764.97;2205763;80;20418;-58
2022/09/16 15:28:56;;;;;;;;;;;;;;;16.40;100.00;97759.95;2204764;80;20129;-59
2022/09/16 15:31:58;;;;;;;;;;;;;;;16.81;100.00;97768.61;2198989;80;20096;-58